Terminal Aerodrome Forecast
Issued by NWS

Current Version | Previous Version | Text Only | Print | Product List | Glossary On
Versions: 1 2 3 4 5 6 7 8 9 10 11 12 13
000
FTUS44 KLUB 201700
TAFCDS
TAF
KCDS 201722Z 2018/2118 19015G23KT P6SM FEW080 SCT200
     FM210400 17013KT P6SM SCT200=

USA.gov is the U.S. government's official web portal to all federal, state and local government web resources and services.